KIZG

Eastern Slopes Regional Airport

Fryeburg, Maine, USA
METAR KIZG 221654Z AUTO 00000KT 10SM CLR 19/09 A3014 RMK AO2 SLP206 T01940094
Observed Flight Rules
May-22 @ 16:54 UTC (56 minutes ago) Visual Flight Rules
Visibility Clouds
10 miles
  • Clear skies
Temperatures Readings
Current 19°C / 66°F
Dewpoint 9°C / 48°F
Humidity 52%
Altimeter 30.14" Hg
Pressure 1020.6 hPa
Elevation 135
METAR KIZG 221654Z AUTO 00000KT 10SM CLR 19/09 A3014 RMK AO2 SLP206 T01940094
Observed Flight Rules
May-22 @ 16:54 UTC
(56 minutes ago)
VFR
Clouds
  • Clear skies
Temperature Dewpoint
19°C / 66°F 9°C / 48°F
Humidity Altimeter Pressure
52% 30.14" Hg 1020.6 hPa